sensor_id;sensor_type;location;lat;lon;timestamp;P1;durP1;ratioP1;P2;durP2;ratioP2
13712;SDS011;6928;50.546;7.120;2024-01-27T00:00:27;3.63;;;0.98;;
13712;SDS011;6928;50.546;7.120;2024-01-27T00:02:54;8.05;;;1.25;;
13712;SDS011;6928;50.546;7.120;2024-01-27T00:05:22;3.35;;;1.25;;
13712;SDS011;6928;50.546;7.120;2024-01-27T00:07:49;3.10;;;1.02;;
13712;SDS011;6928;50.546;7.120;2024-01-27T00:10:16;5.60;;;1.38;;
13712;SDS011;6928;50.546;7.120;2024-01-27T00:12:43;13.10;;;1.20;;
13712;SDS011;6928;50.546;7.120;2024-01-27T00:15:10;0.60;;;0.60;;
13712;SDS011;6928;50.546;7.120;2024-01-27T00:17:38;5.13;;;1.25;;
13712;SDS011;6928;50.546;7.120;2024-01-27T00:20:06;3.15;;;1.05;;
13712;SDS011;6928;50.546;7.120;2024-01-27T00:22:35;2.97;;;0.98;;
13712;SDS011;6928;50.546;7.120;2024-01-27T00:25:03;7.57;;;1.30;;
13712;SDS011;6928;50.546;7.120;2024-01-27T00:27:31;4.43;;;0.90;;
13712;SDS011;6928;50.546;7.120;2024-01-27T00:29:58;7.55;;;1.40;;
13712;SDS011;6928;50.546;7.120;2024-01-27T00:32:25;10.00;;;1.80;;
13712;SDS011;6928;50.546;7.120;2024-01-27T00:34:53;4.45;;;0.98;;
13712;SDS011;6928;50.546;7.120;2024-01-27T00:37:21;6.28;;;1.30;;
13712;SDS011;6928;50.546;7.120;2024-01-27T00:39:53;6.68;;;1.30;;
13712;SDS011;6928;50.546;7.120;2024-01-27T00:42:21;9.15;;;1.92;;
13712;SDS011;6928;50.546;7.120;2024-01-27T00:44:50;7.10;;;1.38;;
13712;SDS011;6928;50.546;7.120;2024-01-27T00:47:19;9.55;;;1.25;;
13712;SDS011;6928;50.546;7.120;2024-01-27T00:49:47;6.28;;;1.30;;
13712;SDS011;6928;50.546;7.120;2024-01-27T00:52:15;7.78;;;1.33;;
13712;SDS011;6928;50.546;7.120;2024-01-27T00:54:43;8.48;;;1.42;;
13712;SDS011;6928;50.546;7.120;2024-01-27T00:57:14;5.85;;;0.98;;
13712;SDS011;6928;50.546;7.120;2024-01-27T00:59:42;2.78;;;1.10;;
13712;SDS011;6928;50.546;7.120;2024-01-27T01:02:09;6.07;;;1.10;;
13712;SDS011;6928;50.546;7.120;2024-01-27T01:04:36;6.45;;;1.45;;
13712;SDS011;6928;50.546;7.120;2024-01-27T01:07:04;6.65;;;1.05;;
13712;SDS011;6928;50.546;7.120;2024-01-27T01:09:31;6.88;;;1.30;;
13712;SDS011;6928;50.546;7.120;2024-01-27T01:11:58;9.32;;;1.33;;
13712;SDS011;6928;50.546;7.120;2024-01-27T01:14:27;3.63;;;1.08;;
13712;SDS011;6928;50.546;7.120;2024-01-27T01:16:53;4.28;;;1.42;;
13712;SDS011;6928;50.546;7.120;2024-01-27T01:19:20;2.50;;;1.00;;
13712;SDS011;6928;50.546;7.120;2024-01-27T01:21:47;3.90;;;1.65;;
13712;SDS011;6928;50.546;7.120;2024-01-27T01:24:14;7.20;;;1.25;;
13712;SDS011;6928;50.546;7.120;2024-01-27T01:26:41;6.50;;;1.33;;
13712;SDS011;6928;50.546;7.120;2024-01-27T01:29:08;5.82;;;1.30;;
13712;SDS011;6928;50.546;7.120;2024-01-27T01:31:36;2.65;;;0.93;;
13712;SDS011;6928;50.546;7.120;2024-01-27T01:34:03;4.72;;;0.95;;
13712;SDS011;6928;50.546;7.120;2024-01-27T01:36:30;7.13;;;1.10;;
13712;SDS011;6928;50.546;7.120;2024-01-27T01:38:57;7.00;;;1.35;;
13712;SDS011;6928;50.546;7.120;2024-01-27T01:41:24;3.13;;;0.77;;
13712;SDS011;6928;50.546;7.120;2024-01-27T01:43:51;4.65;;;1.48;;
13712;SDS011;6928;50.546;7.120;2024-01-27T01:46:18;7.68;;;1.50;;
13712;SDS011;6928;50.546;7.120;2024-01-27T01:48:47;5.78;;;1.63;;
13712;SDS011;6928;50.546;7.120;2024-01-27T01:51:13;3.70;;;1.40;;
13712;SDS011;6928;50.546;7.120;2024-01-27T01:53:41;10.50;;;1.58;;
13712;SDS011;6928;50.546;7.120;2024-01-27T01:56:09;4.90;;;1.80;;
13712;SDS011;6928;50.546;7.120;2024-01-27T01:58:36;1.00;;;1.00;;
13712;SDS011;6928;50.546;7.120;2024-01-27T02:01:02;3.55;;;1.65;;
13712;SDS011;6928;50.546;7.120;2024-01-27T02:03:32;11.93;;;2.92;;
13712;SDS011;6928;50.546;7.120;2024-01-27T02:06:00;10.10;;;1.88;;
13712;SDS011;6928;50.546;7.120;2024-01-27T02:08:27;8.98;;;2.53;;
13712;SDS011;6928;50.546;7.120;2024-01-27T02:10:54;6.25;;;1.60;;
13712;SDS011;6928;50.546;7.120;2024-01-27T02:13:23;7.53;;;2.40;;
13712;SDS011;6928;50.546;7.120;2024-01-27T02:15:50;6.15;;;2.58;;
13712;SDS011;6928;50.546;7.120;2024-01-27T02:18:17;21.23;;;3.35;;
13712;SDS011;6928;50.546;7.120;2024-01-27T02:20:45;7.07;;;2.63;;
13712;SDS011;6928;50.546;7.120;2024-01-27T02:23:13;5.60;;;1.73;;
13712;SDS011;6928;50.546;7.120;2024-01-27T02:25:41;11.57;;;2.17;;
13712;SDS011;6928;50.546;7.120;2024-01-27T02:28:08;9.88;;;1.92;;
13712;SDS011;6928;50.546;7.120;2024-01-27T02:30:35;6.03;;;2.00;;
13712;SDS011;6928;50.546;7.120;2024-01-27T02:33:03;7.70;;;1.83;;
13712;SDS011;6928;50.546;7.120;2024-01-27T02:35:31;10.18;;;1.75;;
13712;SDS011;6928;50.546;7.120;2024-01-27T02:38:01;4.55;;;1.10;;
13712;SDS011;6928;50.546;7.120;2024-01-27T02:40:28;5.82;;;1.20;;
13712;SDS011;6928;50.546;7.120;2024-01-27T02:42:56;6.90;;;1.17;;
13712;SDS011;6928;50.546;7.120;2024-01-27T02:45:23;7.70;;;1.52;;
13712;SDS011;6928;50.546;7.120;2024-01-27T02:47:50;2.65;;;1.27;;
13712;SDS011;6928;50.546;7.120;2024-01-27T02:50:17;7.00;;;1.05;;
13712;SDS011;6928;50.546;7.120;2024-01-27T02:52:44;6.05;;;1.38;;
13712;SDS011;6928;50.546;7.120;2024-01-27T02:55:11;11.90;;;1.35;;
13712;SDS011;6928;50.546;7.120;2024-01-27T02:57:38;2.20;;;0.77;;
13712;SDS011;6928;50.546;7.120;2024-01-27T03:00:08;3.22;;;0.82;;
13712;SDS011;6928;50.546;7.120;2024-01-27T03:02:36;8.45;;;1.45;;
13712;SDS011;6928;50.546;7.120;2024-01-27T03:05:03;5.32;;;1.52;;
13712;SDS011;6928;50.546;7.120;2024-01-27T03:07:31;2.47;;;1.20;;
13712;SDS011;6928;50.546;7.120;2024-01-27T03:09:58;3.63;;;1.20;;
13712;SDS011;6928;50.546;7.120;2024-01-27T03:12:24;3.88;;;1.58;;
13712;SDS011;6928;50.546;7.120;2024-01-27T03:14:51;1.70;;;0.90;;
13712;SDS011;6928;50.546;7.120;2024-01-27T03:17:20;9.20;;;1.23;;
13712;SDS011;6928;50.546;7.120;2024-01-27T03:19:47;5.20;;;1.33;;
13712;SDS011;6928;50.546;7.120;2024-01-27T03:22:13;2.00;;;0.90;;
13712;SDS011;6928;50.546;7.120;2024-01-27T03:24:40;5.38;;;1.08;;
13712;SDS011;6928;50.546;7.120;2024-01-27T03:27:07;4.05;;;0.80;;
13712;SDS011;6928;50.546;7.120;2024-01-27T03:29:34;3.78;;;1.38;;
13712;SDS011;6928;50.546;7.120;2024-01-27T03:32:01;6.07;;;1.52;;
13712;SDS011;6928;50.546;7.120;2024-01-27T03:34:29;3.63;;;1.15;;
13712;SDS011;6928;50.546;7.120;2024-01-27T03:36:56;4.70;;;0.70;;
13712;SDS011;6928;50.546;7.120;2024-01-27T03:39:22;7.15;;;1.25;;
13712;SDS011;6928;50.546;7.120;2024-01-27T03:41:49;5.10;;;1.50;;
13712;SDS011;6928;50.546;7.120;2024-01-27T03:44:16;5.53;;;1.40;;
13712;SDS011;6928;50.546;7.120;2024-01-27T03:46:42;5.18;;;1.38;;
13712;SDS011;6928;50.546;7.120;2024-01-27T03:49:08;5.28;;;1.50;;
13712;SDS011;6928;50.546;7.120;2024-01-27T03:51:36;4.32;;;1.42;;
13712;SDS011;6928;50.546;7.120;2024-01-27T03:54:03;1.98;;;1.35;;
13712;SDS011;6928;50.546;7.120;2024-01-27T03:56:31;4.57;;;1.13;;
13712;SDS011;6928;50.546;7.120;2024-01-27T03:58:58;5.68;;;1.30;;
13712;SDS011;6928;50.546;7.120;2024-01-27T04:01:25;4.80;;;1.42;;
13712;SDS011;6928;50.546;7.120;2024-01-27T04:03:51;3.85;;;1.20;;
13712;SDS011;6928;50.546;7.120;2024-01-27T04:06:18;2.42;;;1.30;;
13712;SDS011;6928;50.546;7.120;2024-01-27T04:08:46;4.82;;;1.30;;
13712;SDS011;6928;50.546;7.120;2024-01-27T04:11:18;5.10;;;1.83;;
13712;SDS011;6928;50.546;7.120;2024-01-27T04:13:47;9.80;;;2.05;;
13712;SDS011;6928;50.546;7.120;2024-01-27T04:16:15;3.90;;;1.33;;
13712;SDS011;6928;50.546;7.120;2024-01-27T04:18:42;8.55;;;1.63;;
13712;SDS011;6928;50.546;7.120;2024-01-27T04:21:09;3.90;;;1.48;;
13712;SDS011;6928;50.546;7.120;2024-01-27T04:23:35;7.60;;;2.45;;
13712;SDS011;6928;50.546;7.120;2024-01-27T04:26:04;3.08;;;1.23;;
13712;SDS011;6928;50.546;7.120;2024-01-27T04:28:31;7.80;;;1.33;;
13712;SDS011;6928;50.546;7.120;2024-01-27T04:30:58;7.15;;;1.60;;
13712;SDS011;6928;50.546;7.120;2024-01-27T04:33:25;2.90;;;1.00;;
13712;SDS011;6928;50.546;7.120;2024-01-27T04:35:51;2.90;;;0.93;;
13712;SDS011;6928;50.546;7.120;2024-01-27T04:38:18;7.03;;;1.23;;
13712;SDS011;6928;50.546;7.120;2024-01-27T04:40:45;4.65;;;1.42;;
13712;SDS011;6928;50.546;7.120;2024-01-27T04:43:15;1.55;;;1.13;;
13712;SDS011;6928;50.546;7.120;2024-01-27T04:45:43;3.47;;;1.95;;
13712;SDS011;6928;50.546;7.120;2024-01-27T04:48:09;6.75;;;1.30;;
13712;SDS011;6928;50.546;7.120;2024-01-27T04:50:36;4.15;;;1.50;;
13712;SDS011;6928;50.546;7.120;2024-01-27T04:53:03;3.65;;;1.30;;
13712;SDS011;6928;50.546;7.120;2024-01-27T04:55:30;3.47;;;1.33;;
13712;SDS011;6928;50.546;7.120;2024-01-27T04:57:57;5.63;;;1.08;;
13712;SDS011;6928;50.546;7.120;2024-01-27T05:00:26;0.68;;;0.68;;
13712;SDS011;6928;50.546;7.120;2024-01-27T05:02:53;3.65;;;1.08;;
13712;SDS011;6928;50.546;7.120;2024-01-27T05:05:20;6.93;;;1.13;;
13712;SDS011;6928;50.546;7.120;2024-01-27T05:07:47;2.13;;;1.05;;
13712;SDS011;6928;50.546;7.120;2024-01-27T05:10:14;0.90;;;0.90;;
13712;SDS011;6928;50.546;7.120;2024-01-27T05:12:41;2.05;;;1.20;;
13712;SDS011;6928;50.546;7.120;2024-01-27T05:15:09;1.55;;;1.10;;
13712;SDS011;6928;50.546;7.120;2024-01-27T05:17:38;6.00;;;2.17;;
13712;SDS011;6928;50.546;7.120;2024-01-27T05:20:05;6.03;;;2.17;;
13712;SDS011;6928;50.546;7.120;2024-01-27T05:22:33;5.07;;;1.63;;
13712;SDS011;6928;50.546;7.120;2024-01-27T05:25:00;6.53;;;3.22;;
13712;SDS011;6928;50.546;7.120;2024-01-27T05:27:29;13.07;;;2.47;;
13712;SDS011;6928;50.546;7.120;2024-01-27T05:29:56;6.13;;;2.50;;
13712;SDS011;6928;50.546;7.120;2024-01-27T05:32:23;6.22;;;2.20;;
13712;SDS011;6928;50.546;7.120;2024-01-27T05:34:51;3.47;;;1.20;;
13712;SDS011;6928;50.546;7.120;2024-01-27T05:37:17;5.03;;;1.73;;
13712;SDS011;6928;50.546;7.120;2024-01-27T05:39:44;9.80;;;1.83;;
13712;SDS011;6928;50.546;7.120;2024-01-27T05:42:11;4.45;;;2.13;;
13712;SDS011;6928;50.546;7.120;2024-01-27T05:44:38;6.93;;;2.00;;
13712;SDS011;6928;50.546;7.120;2024-01-27T05:47:05;5.03;;;1.83;;
13712;SDS011;6928;50.546;7.120;2024-01-27T05:49:32;2.72;;;1.50;;
13712;SDS011;6928;50.546;7.120;2024-01-27T05:52:00;4.75;;;1.30;;
13712;SDS011;6928;50.546;7.120;2024-01-27T05:54:27;8.85;;;1.58;;
13712;SDS011;6928;50.546;7.120;2024-01-27T05:56:54;17.45;;;1.33;;
13712;SDS011;6928;50.546;7.120;2024-01-27T05:59:20;4.35;;;1.67;;
13712;SDS011;6928;50.546;7.120;2024-01-27T06:01:47;2.72;;;1.70;;
13712;SDS011;6928;50.546;7.120;2024-01-27T06:04:14;5.82;;;1.40;;
13712;SDS011;6928;50.546;7.120;2024-01-27T06:06:41;2.92;;;1.75;;
13712;SDS011;6928;50.546;7.120;2024-01-27T06:09:09;3.13;;;1.38;;
13712;SDS011;6928;50.546;7.120;2024-01-27T06:11:37;8.38;;;2.05;;
13712;SDS011;6928;50.546;7.120;2024-01-27T06:14:03;2.10;;;1.17;;
13712;SDS011;6928;50.546;7.120;2024-01-27T06:16:31;1.45;;;1.02;;
13712;SDS011;6928;50.546;7.120;2024-01-27T06:19:00;3.33;;;1.27;;
13712;SDS011;6928;50.546;7.120;2024-01-27T06:21:27;2.78;;;1.08;;
13712;SDS011;6928;50.546;7.120;2024-01-27T06:23:53;4.05;;;1.20;;
13712;SDS011;6928;50.546;7.120;2024-01-27T06:26:21;1.00;;;1.00;;
13712;SDS011;6928;50.546;7.120;2024-01-27T06:28:48;2.05;;;1.52;;
13712;SDS011;6928;50.546;7.120;2024-01-27T06:31:15;3.80;;;1.17;;
13712;SDS011;6928;50.546;7.120;2024-01-27T06:33:42;4.18;;;1.55;;
13712;SDS011;6928;50.546;7.120;2024-01-27T06:36:09;4.28;;;0.90;;
13712;SDS011;6928;50.546;7.120;2024-01-27T06:38:36;6.40;;;1.83;;
13712;SDS011;6928;50.546;7.120;2024-01-27T06:41:03;5.00;;;0.98;;
13712;SDS011;6928;50.546;7.120;2024-01-27T06:43:32;2.83;;;1.67;;
13712;SDS011;6928;50.546;7.120;2024-01-27T06:45:58;5.05;;;1.60;;
13712;SDS011;6928;50.546;7.120;2024-01-27T06:48:25;7.35;;;1.45;;
13712;SDS011;6928;50.546;7.120;2024-01-27T06:50:52;2.35;;;1.17;;
13712;SDS011;6928;50.546;7.120;2024-01-27T06:53:19;3.33;;;1.25;;
13712;SDS011;6928;50.546;7.120;2024-01-27T06:55:46;6.00;;;1.98;;
13712;SDS011;6928;50.546;7.120;2024-01-27T06:58:12;2.20;;;1.20;;
13712;SDS011;6928;50.546;7.120;2024-01-27T07:00:40;8.00;;;1.60;;
13712;SDS011;6928;50.546;7.120;2024-01-27T07:03:07;5.82;;;2.65;;
13712;SDS011;6928;50.546;7.120;2024-01-27T07:05:34;7.90;;;3.08;;
13712;SDS011;6928;50.546;7.120;2024-01-27T07:08:04;6.80;;;2.17;;
13712;SDS011;6928;50.546;7.120;2024-01-27T07:10:32;33.55;;;8.38;;
13712;SDS011;6928;50.546;7.120;2024-01-27T07:12:59;45.08;;;16.80;;
13712;SDS011;6928;50.546;7.120;2024-01-27T07:15:26;17.90;;;6.30;;
13712;SDS011;6928;50.546;7.120;2024-01-27T07:17:54;4.85;;;2.95;;
13712;SDS011;6928;50.546;7.120;2024-01-27T07:20:21;6.60;;;2.60;;
13712;SDS011;6928;50.546;7.120;2024-01-27T07:22:49;4.80;;;2.58;;
13712;SDS011;6928;50.546;7.120;2024-01-27T07:25:16;5.22;;;1.55;;
13712;SDS011;6928;50.546;7.120;2024-01-27T07:27:43;4.78;;;1.60;;
13712;SDS011;6928;50.546;7.120;2024-01-27T07:30:11;3.25;;;2.20;;
13712;SDS011;6928;50.546;7.120;2024-01-27T07:32:38;12.80;;;5.43;;
13712;SDS011;6928;50.546;7.120;2024-01-27T07:35:07;4.05;;;1.70;;
13712;SDS011;6928;50.546;7.120;2024-01-27T07:37:34;3.78;;;1.50;;
13712;SDS011;6928;50.546;7.120;2024-01-27T07:40:01;9.52;;;1.85;;
13712;SDS011;6928;50.546;7.120;2024-01-27T07:42:28;3.45;;;1.67;;
13712;SDS011;6928;50.546;7.120;2024-01-27T07:44:55;4.53;;;1.65;;
13712;SDS011;6928;50.546;7.120;2024-01-27T07:47:22;3.10;;;1.55;;
13712;SDS011;6928;50.546;7.120;2024-01-27T07:49:49;2.33;;;1.25;;
13712;SDS011;6928;50.546;7.120;2024-01-27T07:52:17;5.70;;;2.03;;
13712;SDS011;6928;50.546;7.120;2024-01-27T07:54:44;6.88;;;1.67;;
13712;SDS011;6928;50.546;7.120;2024-01-27T07:57:11;5.93;;;1.17;;
13712;SDS011;6928;50.546;7.120;2024-01-27T07:59:38;4.45;;;1.33;;
13712;SDS011;6928;50.546;7.120;2024-01-27T08:02:05;6.05;;;1.38;;
13712;SDS011;6928;50.546;7.120;2024-01-27T08:04:31;2.85;;;1.58;;
13712;SDS011;6928;50.546;7.120;2024-01-27T08:06:59;2.80;;;1.85;;
13712;SDS011;6928;50.546;7.120;2024-01-27T08:09:32;2.63;;;1.52;;
13712;SDS011;6928;50.546;7.120;2024-01-27T08:11:59;4.78;;;1.65;;
13712;SDS011;6928;50.546;7.120;2024-01-27T08:14:27;3.65;;;1.98;;
13712;SDS011;6928;50.546;7.120;2024-01-27T08:16:55;5.28;;;2.35;;
13712;SDS011;6928;50.546;7.120;2024-01-27T08:19:22;6.85;;;1.83;;
13712;SDS011;6928;50.546;7.120;2024-01-27T08:21:49;5.32;;;1.98;;
13712;SDS011;6928;50.546;7.120;2024-01-27T08:24:17;5.30;;;2.30;;
13712;SDS011;6928;50.546;7.120;2024-01-27T08:26:46;5.07;;;1.67;;
13712;SDS011;6928;50.546;7.120;2024-01-27T08:29:13;3.72;;;1.75;;
13712;SDS011;6928;50.546;7.120;2024-01-27T08:31:40;7.95;;;1.67;;
13712;SDS011;6928;50.546;7.120;2024-01-27T08:34:07;5.60;;;1.90;;
13712;SDS011;6928;50.546;7.120;2024-01-27T08:36:34;5.90;;;1.60;;
13712;SDS011;6928;50.546;7.120;2024-01-27T08:39:03;3.30;;;1.90;;
13712;SDS011;6928;50.546;7.120;2024-01-27T08:41:32;8.20;;;2.22;;
13712;SDS011;6928;50.546;7.120;2024-01-27T08:44:00;11.07;;;2.03;;
13712;SDS011;6928;50.546;7.120;2024-01-27T08:46:27;7.97;;;2.03;;
13712;SDS011;6928;50.546;7.120;2024-01-27T08:48:54;8.95;;;2.60;;
13712;SDS011;6928;50.546;7.120;2024-01-27T08:51:21;6.78;;;1.90;;
13712;SDS011;6928;50.546;7.120;2024-01-27T08:53:47;5.65;;;2.28;;
13712;SDS011;6928;50.546;7.120;2024-01-27T08:56:14;10.35;;;2.60;;
13712;SDS011;6928;50.546;7.120;2024-01-27T08:58:42;9.15;;;2.50;;
13712;SDS011;6928;50.546;7.120;2024-01-27T09:01:11;6.85;;;2.25;;
13712;SDS011;6928;50.546;7.120;2024-01-27T09:03:40;8.80;;;2.40;;
13712;SDS011;6928;50.546;7.120;2024-01-27T09:06:07;3.20;;;1.55;;
13712;SDS011;6928;50.546;7.120;2024-01-27T09:08:33;16.08;;;2.15;;
13712;SDS011;6928;50.546;7.120;2024-01-27T09:11:01;3.88;;;1.88;;
13712;SDS011;6928;50.546;7.120;2024-01-27T09:13:28;7.40;;;3.30;;
13712;SDS011;6928;50.546;7.120;2024-01-27T09:15:55;11.32;;;2.80;;
13712;SDS011;6928;50.546;7.120;2024-01-27T09:18:24;12.73;;;2.70;;
13712;SDS011;6928;50.546;7.120;2024-01-27T09:20:51;6.32;;;2.28;;
13712;SDS011;6928;50.546;7.120;2024-01-27T09:23:18;11.55;;;1.98;;
13712;SDS011;6928;50.546;7.120;2024-01-27T09:25:45;18.13;;;1.90;;
13712;SDS011;6928;50.546;7.120;2024-01-27T09:28:12;6.10;;;1.95;;
13712;SDS011;6928;50.546;7.120;2024-01-27T09:30:39;2.95;;;2.00;;
13712;SDS011;6928;50.546;7.120;2024-01-27T09:33:06;10.25;;;2.50;;
13712;SDS011;6928;50.546;7.120;2024-01-27T09:35:34;9.95;;;2.80;;
13712;SDS011;6928;50.546;7.120;2024-01-27T09:38:01;8.40;;;2.80;;
13712;SDS011;6928;50.546;7.120;2024-01-27T09:40:27;5.78;;;2.15;;
13712;SDS011;6928;50.546;7.120;2024-01-27T09:42:55;10.25;;;2.40;;
13712;SDS011;6928;50.546;7.120;2024-01-27T09:45:25;9.65;;;3.08;;
13712;SDS011;6928;50.546;7.120;2024-01-27T09:47:52;9.82;;;2.90;;
13712;SDS011;6928;50.546;7.120;2024-01-27T09:50:22;7.03;;;2.90;;
13712;SDS011;6928;50.546;7.120;2024-01-27T09:52:50;6.47;;;2.72;;
13712;SDS011;6928;50.546;7.120;2024-01-27T09:55:17;7.15;;;2.53;;
13712;SDS011;6928;50.546;7.120;2024-01-27T09:57:44;8.48;;;1.83;;
13712;SDS011;6928;50.546;7.120;2024-01-27T10:00:11;7.65;;;2.15;;
13712;SDS011;6928;50.546;7.120;2024-01-27T10:02:41;6.38;;;2.35;;
13712;SDS011;6928;50.546;7.120;2024-01-27T10:05:11;4.95;;;1.92;;
13712;SDS011;6928;50.546;7.120;2024-01-27T10:07:40;5.00;;;1.65;;
13712;SDS011;6928;50.546;7.120;2024-01-27T10:10:08;6.75;;;2.63;;
13712;SDS011;6928;50.546;7.120;2024-01-27T10:12:38;8.27;;;2.65;;
13712;SDS011;6928;50.546;7.120;2024-01-27T10:15:17;7.93;;;2.38;;
13712;SDS011;6928;50.546;7.120;2024-01-27T10:17:45;9.73;;;2.72;;
13712;SDS011;6928;50.546;7.120;2024-01-27T10:20:13;9.55;;;2.00;;
13712;SDS011;6928;50.546;7.120;2024-01-27T10:22:40;13.82;;;1.92;;
13712;SDS011;6928;50.546;7.120;2024-01-27T10:25:11;11.95;;;2.10;;
13712;SDS011;6928;50.546;7.120;2024-01-27T10:27:38;8.40;;;1.85;;
13712;SDS011;6928;50.546;7.120;2024-01-27T10:30:07;6.15;;;2.05;;
13712;SDS011;6928;50.546;7.120;2024-01-27T10:32:43;8.50;;;2.53;;
13712;SDS011;6928;50.546;7.120;2024-01-27T10:35:21;7.32;;;1.88;;
13712;SDS011;6928;50.546;7.120;2024-01-27T10:37:51;6.07;;;1.65;;
13712;SDS011;6928;50.546;7.120;2024-01-27T10:40:21;5.50;;;2.13;;
13712;SDS011;6928;50.546;7.120;2024-01-27T10:42:51;9.50;;;2.28;;
13712;SDS011;6928;50.546;7.120;2024-01-27T10:45:27;12.43;;;2.00;;
13712;SDS011;6928;50.546;7.120;2024-01-27T10:48:00;11.18;;;1.88;;
13712;SDS011;6928;50.546;7.120;2024-01-27T10:50:29;5.63;;;1.92;;
13712;SDS011;6928;50.546;7.120;2024-01-27T10:52:57;6.35;;;2.08;;
13712;SDS011;6928;50.546;7.120;2024-01-27T10:55:27;5.90;;;2.22;;
13712;SDS011;6928;50.546;7.120;2024-01-27T10:57:54;11.48;;;1.92;;
13712;SDS011;6928;50.546;7.120;2024-01-27T11:00:27;8.98;;;2.40;;
13712;SDS011;6928;50.546;7.120;2024-01-27T11:02:54;5.80;;;2.13;;
13712;SDS011;6928;50.546;7.120;2024-01-27T11:05:26;10.18;;;2.22;;
13712;SDS011;6928;50.546;7.120;2024-01-27T11:07:55;9.07;;;2.75;;
13712;SDS011;6928;50.546;7.120;2024-01-27T11:10:23;6.90;;;2.42;;
13712;SDS011;6928;50.546;7.120;2024-01-27T11:12:53;8.65;;;2.65;;
13712;SDS011;6928;50.546;7.120;2024-01-27T11:15:20;7.78;;;2.03;;
13712;SDS011;6928;50.546;7.120;2024-01-27T11:17:47;11.52;;;2.95;;
13712;SDS011;6928;50.546;7.120;2024-01-27T11:20:15;16.85;;;2.97;;
13712;SDS011;6928;50.546;7.120;2024-01-27T11:22:42;13.65;;;2.53;;
13712;SDS011;6928;50.546;7.120;2024-01-27T11:25:14;6.28;;;2.55;;
13712;SDS011;6928;50.546;7.120;2024-01-27T11:27:43;5.70;;;2.60;;
13712;SDS011;6928;50.546;7.120;2024-01-27T11:30:26;8.95;;;3.08;;
13712;SDS011;6928;50.546;7.120;2024-01-27T11:32:54;10.48;;;2.58;;
13712;SDS011;6928;50.546;7.120;2024-01-27T11:35:22;14.95;;;3.05;;
13712;SDS011;6928;50.546;7.120;2024-01-27T11:37:49;11.68;;;2.90;;
13712;SDS011;6928;50.546;7.120;2024-01-27T11:40:17;10.38;;;2.75;;
13712;SDS011;6928;50.546;7.120;2024-01-27T11:42:43;11.80;;;2.78;;
13712;SDS011;6928;50.546;7.120;2024-01-27T11:45:21;13.48;;;3.20;;
13712;SDS011;6928;50.546;7.120;2024-01-27T11:47:50;9.75;;;2.67;;
13712;SDS011;6928;50.546;7.120;2024-01-27T11:50:17;8.10;;;2.78;;
13712;SDS011;6928;50.546;7.120;2024-01-27T11:52:46;11.43;;;2.78;;
13712;SDS011;6928;50.546;7.120;2024-01-27T11:55:13;10.18;;;2.55;;
13712;SDS011;6928;50.546;7.120;2024-01-27T11:57:41;7.10;;;2.20;;
13712;SDS011;6928;50.546;7.120;2024-01-27T12:00:08;12.00;;;3.25;;
13712;SDS011;6928;50.546;7.120;2024-01-27T12:02:36;11.75;;;3.40;;
13712;SDS011;6928;50.546;7.120;2024-01-27T12:05:04;13.68;;;2.67;;
13712;SDS011;6928;50.546;7.120;2024-01-27T12:07:32;14.50;;;2.30;;
13712;SDS011;6928;50.546;7.120;2024-01-27T12:09:59;10.93;;;2.60;;
13712;SDS011;6928;50.546;7.120;2024-01-27T12:12:26;9.45;;;2.72;;
13712;SDS011;6928;50.546;7.120;2024-01-27T12:14:53;2.25;;;1.73;;
13712;SDS011;6928;50.546;7.120;2024-01-27T12:17:21;11.10;;;2.53;;
13712;SDS011;6928;50.546;7.120;2024-01-27T12:19:49;11.88;;;3.17;;
13712;SDS011;6928;50.546;7.120;2024-01-27T12:22:22;8.27;;;2.10;;
13712;SDS011;6928;50.546;7.120;2024-01-27T12:24:51;12.38;;;2.42;;
13712;SDS011;6928;50.546;7.120;2024-01-27T12:27:18;6.32;;;2.28;;
13712;SDS011;6928;50.546;7.120;2024-01-27T12:29:47;8.13;;;2.35;;
13712;SDS011;6928;50.546;7.120;2024-01-27T12:32:15;10.25;;;2.22;;
13712;SDS011;6928;50.546;7.120;2024-01-27T12:34:42;8.02;;;2.08;;
13712;SDS011;6928;50.546;7.120;2024-01-27T12:37:10;4.65;;;2.03;;
13712;SDS011;6928;50.546;7.120;2024-01-27T12:39:42;11.88;;;2.72;;
13712;SDS011;6928;50.546;7.120;2024-01-27T12:42:09;7.78;;;1.98;;
13712;SDS011;6928;50.546;7.120;2024-01-27T12:44:36;8.70;;;2.40;;
13712;SDS011;6928;50.546;7.120;2024-01-27T12:47:03;8.27;;;2.42;;
13712;SDS011;6928;50.546;7.120;2024-01-27T12:49:30;15.23;;;2.70;;
13712;SDS011;6928;50.546;7.120;2024-01-27T12:51:58;8.18;;;2.53;;
13712;SDS011;6928;50.546;7.120;2024-01-27T12:54:25;11.02;;;2.15;;
13712;SDS011;6928;50.546;7.120;2024-01-27T12:56:54;6.80;;;2.33;;
13712;SDS011;6928;50.546;7.120;2024-01-27T12:59:23;20.08;;;2.50;;
13712;SDS011;6928;50.546;7.120;2024-01-27T13:01:50;8.95;;;2.47;;
13712;SDS011;6928;50.546;7.120;2024-01-27T13:04:18;10.15;;;1.90;;
13712;SDS011;6928;50.546;7.120;2024-01-27T13:06:46;10.35;;;2.35;;
13712;SDS011;6928;50.546;7.120;2024-01-27T13:09:13;6.45;;;2.03;;
13712;SDS011;6928;50.546;7.120;2024-01-27T13:11:41;10.40;;;2.53;;
13712;SDS011;6928;50.546;7.120;2024-01-27T13:14:09;11.50;;;2.22;;
13712;SDS011;6928;50.546;7.120;2024-01-27T13:16:38;10.55;;;2.08;;
13712;SDS011;6928;50.546;7.120;2024-01-27T13:19:05;6.82;;;1.52;;
13712;SDS011;6928;50.546;7.120;2024-01-27T13:21:32;9.75;;;2.50;;
13712;SDS011;6928;50.546;7.120;2024-01-27T13:23:59;2.97;;;1.58;;
13712;SDS011;6928;50.546;7.120;2024-01-27T13:26:26;6.35;;;2.03;;
13712;SDS011;6928;50.546;7.120;2024-01-27T13:28:53;8.13;;;1.45;;
13712;SDS011;6928;50.546;7.120;2024-01-27T13:31:22;10.25;;;2.30;;
13712;SDS011;6928;50.546;7.120;2024-01-27T13:33:49;8.73;;;1.60;;
13712;SDS011;6928;50.546;7.120;2024-01-27T13:36:16;12.80;;;4.38;;
13712;SDS011;6928;50.546;7.120;2024-01-27T13:38:43;8.52;;;2.53;;
13712;SDS011;6928;50.546;7.120;2024-01-27T13:41:10;12.98;;;1.95;;
13712;SDS011;6928;50.546;7.120;2024-01-27T13:43:37;4.72;;;2.03;;
13712;SDS011;6928;50.546;7.120;2024-01-27T13:46:04;5.90;;;1.88;;
13712;SDS011;6928;50.546;7.120;2024-01-27T13:48:32;10.18;;;2.40;;
13712;SDS011;6928;50.546;7.120;2024-01-27T13:51:00;8.20;;;2.08;;
13712;SDS011;6928;50.546;7.120;2024-01-27T13:53:27;7.90;;;1.88;;
13712;SDS011;6928;50.546;7.120;2024-01-27T13:55:57;11.52;;;3.00;;
13712;SDS011;6928;50.546;7.120;2024-01-27T13:58:25;4.90;;;2.03;;
13712;SDS011;6928;50.546;7.120;2024-01-27T14:00:52;10.25;;;2.90;;
13712;SDS011;6928;50.546;7.120;2024-01-27T14:03:20;8.23;;;2.28;;
13712;SDS011;6928;50.546;7.120;2024-01-27T14:05:49;14.30;;;2.97;;
13712;SDS011;6928;50.546;7.120;2024-01-27T14:08:17;6.47;;;2.78;;
13712;SDS011;6928;50.546;7.120;2024-01-27T14:10:44;12.85;;;2.97;;
13712;SDS011;6928;50.546;7.120;2024-01-27T14:13:13;10.25;;;2.55;;
13712;SDS011;6928;50.546;7.120;2024-01-27T14:15:40;8.10;;;2.50;;
13712;SDS011;6928;50.546;7.120;2024-01-27T14:18:07;10.55;;;2.58;;
13712;SDS011;6928;50.546;7.120;2024-01-27T14:20:39;4.60;;;1.95;;
13712;SDS011;6928;50.546;7.120;2024-01-27T14:23:07;11.85;;;2.15;;
13712;SDS011;6928;50.546;7.120;2024-01-27T14:25:34;7.60;;;2.00;;
13712;SDS011;6928;50.546;7.120;2024-01-27T14:28:03;12.18;;;2.00;;
13712;SDS011;6928;50.546;7.120;2024-01-27T14:30:32;9.32;;;2.25;;
13712;SDS011;6928;50.546;7.120;2024-01-27T14:32:59;6.03;;;1.67;;
13712;SDS011;6928;50.546;7.120;2024-01-27T14:35:26;7.85;;;1.90;;
13712;SDS011;6928;50.546;7.120;2024-01-27T14:37:53;5.32;;;1.52;;
13712;SDS011;6928;50.546;7.120;2024-01-27T14:40:23;8.07;;;2.42;;
13712;SDS011;6928;50.546;7.120;2024-01-27T14:42:51;9.32;;;2.08;;
13712;SDS011;6928;50.546;7.120;2024-01-27T14:45:18;3.97;;;1.25;;
13712;SDS011;6928;50.546;7.120;2024-01-27T14:47:45;9.35;;;1.73;;
13712;SDS011;6928;50.546;7.120;2024-01-27T14:50:11;7.35;;;1.80;;
13712;SDS011;6928;50.546;7.120;2024-01-27T14:52:38;5.35;;;1.50;;
13712;SDS011;6928;50.546;7.120;2024-01-27T14:55:05;5.30;;;1.60;;
13712;SDS011;6928;50.546;7.120;2024-01-27T14:57:37;4.40;;;1.40;;
13712;SDS011;6928;50.546;7.120;2024-01-27T15:00:05;10.65;;;1.77;;